Time;durP1;ratioP1;P1;durP2;ratioP2;P2;SDS_P1;SDS_P2;PMS_P1;PMS_P2;Temp;Humidity;BMP_temperature;BMP_pressure;BME280_temperature;BME280_humidity;BME280_pressure;Samples;Min_cycle;Max_cycle;Signal;HPM_P1;HPM_P2
2021/03/22 00:02:11;;;;;;;24.23;7.93;;;7.00;99.90;;;;;;4956538;28;20267;-86
2021/03/22 00:04:38;;;;;;;22.60;7.60;;;6.90;99.90;;;;;;4969123;28;20216;-84
2021/03/22 00:07:05;;;;;;;27.83;8.80;;;6.90;99.90;;;;;;4967951;28;20605;-84
2021/03/22 00:09:31;;;;;;;20.47;6.83;;;6.90;99.90;;;;;;4967963;28;20213;-81
2021/03/22 00:11:57;;;;;;;24.17;7.97;;;6.80;99.90;;;;;;4968762;28;20205;-87
2021/03/22 00:14:23;;;;;;;38.00;8.70;;;6.80;99.90;;;;;;4967201;28;20890;-87
2021/03/22 00:16:50;;;;;;;34.20;7.97;;;6.80;99.90;;;;;;4968136;28;20221;-91
2021/03/22 00:19:16;;;;;;;26.63;8.00;;;6.80;99.90;;;;;;4968366;28;20212;-84
2021/03/22 00:21:44;;;;;;;19.57;7.83;;;6.80;99.90;;;;;;4967026;28;20319;-89
2021/03/22 00:24:10;;;;;;;31.87;8.47;;;6.80;99.90;;;;;;4969502;28;20263;-85
2021/03/22 00:26:36;;;;;;;24.43;7.83;;;6.80;99.90;;;;;;4972265;28;20215;-80
2021/03/22 00:29:03;;;;;;;29.00;7.63;;;6.80;99.90;;;;;;4970558;28;20200;-91
2021/03/22 00:31:30;;;;;;;33.73;7.70;;;6.80;99.90;;;;;;4970701;28;20216;-86
2021/03/22 00:33:56;;;;;;;29.90;7.90;;;6.80;99.90;;;;;;4971255;28;20193;-88
2021/03/22 00:36:22;;;;;;;28.77;7.60;;;6.80;99.90;;;;;;4969617;28;20204;-88
2021/03/22 00:38:50;;;;;;;27.73;7.50;;;6.80;99.90;;;;;;4970830;28;20723;-80
2021/03/22 00:41:17;;;;;;;30.47;7.57;;;6.80;99.90;;;;;;4970261;28;20204;-92
2021/03/22 00:43:43;;;;;;;30.10;8.30;;;6.70;99.90;;;;;;4970459;28;20314;-88
2021/03/22 00:46:09;;;;;;;29.23;6.43;;;6.70;99.90;;;;;;4971387;28;20628;-89
2021/03/22 00:48:36;;;;;;;34.90;8.63;;;6.80;99.90;;;;;;4970291;28;20217;-83
2021/03/22 00:51:04;;;;;;;25.13;8.03;;;6.70;99.90;;;;;;4971416;28;20205;-93
2021/03/22 00:53:30;;;;;;;36.27;9.70;;;6.70;99.90;;;;;;4972399;28;20522;-90
2021/03/22 00:55:58;;;;;;;25.90;6.83;;;6.70;99.90;;;;;;4972225;28;20209;-80
2021/03/22 00:58:24;;;;;;;22.47;7.10;;;6.70;99.90;;;;;;4989397;28;20274;-82
2021/03/22 01:00:52;;;;;;;27.50;6.97;;;6.70;99.90;;;;;;4989962;28;20227;-90
2021/03/22 01:03:20;;;;;;;21.93;6.97;;;6.70;99.90;;;;;;4991262;28;20266;-92
2021/03/22 01:05:47;;;;;;;31.87;8.93;;;6.70;99.90;;;;;;4990801;28;20512;-91
2021/03/22 01:08:14;;;;;;;33.50;8.50;;;6.70;99.90;;;;;;4991642;28;20223;-82
2021/03/22 01:10:43;;;;;;;24.47;6.70;;;6.70;99.90;;;;;;4989923;28;20200;-92
2021/03/22 01:13:13;;;;;;;30.87;8.33;;;6.60;99.90;;;;;;4990806;28;20206;-91
2021/03/22 01:15:40;;;;;;;34.77;8.97;;;6.60;99.90;;;;;;4992723;28;20200;-92
2021/03/22 01:18:07;;;;;;;30.17;6.73;;;6.70;99.90;;;;;;4990751;28;20236;-80
2021/03/22 01:20:38;;;;;;;31.20;7.93;;;6.70;99.90;;;;;;4991293;28;20200;-82
2021/03/22 01:23:05;;;;;;;21.43;5.93;;;6.70;99.90;;;;;;4990501;28;20239;-91
2021/03/22 01:25:32;;;;;;;23.20;7.40;;;6.70;99.90;;;;;;4990524;28;20741;-85
2021/03/22 01:27:58;;;;;;;16.43;6.97;;;6.70;99.90;;;;;;4991724;28;20211;-90
2021/03/22 01:30:30;;;;;;;25.77;7.27;;;6.60;99.90;;;;;;4988271;28;20255;-89
2021/03/22 01:32:58;;;;;;;32.17;8.53;;;6.60;99.90;;;;;;4991135;28;20214;-91
2021/03/22 01:35:25;;;;;;;36.27;7.70;;;6.60;99.90;;;;;;4991110;28;20204;-81
2021/03/22 01:37:51;;;;;;;21.97;6.73;;;6.60;99.90;;;;;;4989780;28;20220;-90
2021/03/22 01:40:29;;;;;;;21.80;5.63;;;6.60;99.90;;;;;;4989019;28;20200;-89
2021/03/22 01:43:03;;;;;;;25.97;6.73;;;6.60;99.90;;;;;;4991157;28;20566;-90
2021/03/22 01:45:31;;;;;;;24.73;6.40;;;6.70;99.90;;;;;;4992640;28;20258;-91
2021/03/22 01:47:57;;;;;;;19.90;5.90;;;6.60;99.90;;;;;;4991740;28;20303;-90
2021/03/22 01:50:25;;;;;;;27.07;5.93;;;6.50;99.90;;;;;;4992394;28;20200;-90
2021/03/22 01:52:53;;;;;;;29.73;5.80;;;6.50;99.90;;;;;;4992722;28;20218;-91
2021/03/22 01:55:22;;;;;;;22.63;5.70;;;6.50;99.90;;;;;;4992408;28;20192;-91
2021/03/22 01:57:48;;;;;;;28.50;6.03;;;6.40;99.90;;;;;;4991747;28;20240;-90
2021/03/22 02:00:24;;;;;;;32.07;5.87;;;6.40;99.90;;;;;;4991657;28;20207;-90
2021/03/22 02:02:56;;;;;;;21.27;5.67;;;6.40;99.90;;;;;;4992029;28;20203;-91
2021/03/22 02:05:26;;;;;;;21.13;5.70;;;6.40;99.90;;;;;;4991396;28;20230;-91
2021/03/22 02:07:56;;;;;;;28.93;6.07;;;6.30;99.90;;;;;;4992059;28;20196;-91
2021/03/22 02:10:23;;;;;;;21.90;4.70;;;6.30;99.90;;;;;;4990627;28;20208;-91
2021/03/22 02:12:49;;;;;;;19.97;5.67;;;6.30;99.90;;;;;;4990359;28;20223;-90
2021/03/22 02:15:16;;;;;;;19.17;6.23;;;6.20;99.90;;;;;;4991374;28;20211;-90
2021/03/22 02:17:56;;;;;;;23.70;5.87;;;6.20;99.90;;;;;;4988324;28;20290;-91
2021/03/22 02:21:06;;;;;;;25.60;5.67;;;6.20;99.90;;;;;;4990527;28;20196;-90
2021/03/22 02:24:05;;;;;;;16.63;5.20;;;6.20;99.90;;;;;;4990890;28;20203;-86
2021/03/22 02:26:57;;;;;;;22.77;4.47;;;6.30;99.90;;;;;;4990685;28;20196;-88
2021/03/22 02:29:37;;;;;;;23.23;4.57;;;6.30;99.90;;;;;;4985757;28;20274;-85
2021/03/22 02:32:18;;;;;;;23.27;4.23;;;6.30;99.90;;;;;;4984827;28;20593;-86
2021/03/22 02:34:49;;;;;;;14.47;4.47;;;6.30;99.90;;;;;;4969135;28;21053;-91
2021/03/22 02:37:36;;;;;;;24.47;5.43;;;6.40;99.90;;;;;;4970497;28;20217;-89
2021/03/22 02:40:25;;;;;;;17.73;3.50;;;6.40;99.90;;;;;;4984656;28;20266;-91
2021/03/22 02:42:52;;;;;;;19.17;4.43;;;6.40;99.90;;;;;;4986683;28;20196;-91
2021/03/22 02:45:23;;;;;;;19.90;4.97;;;6.40;99.90;;;;;;4983839;28;20793;-91
2021/03/22 02:47:49;;;;;;;16.37;4.43;;;6.40;99.90;;;;;;4988142;28;20208;-81
2021/03/22 02:50:19;;;;;;;15.43;4.83;;;6.30;99.90;;;;;;4989284;28;20601;-88
2021/03/22 02:53:18;;;;;;;17.53;4.83;;;6.30;99.90;;;;;;4989741;28;20218;-92
2021/03/22 02:55:57;;;;;;;20.20;4.80;;;6.30;99.90;;;;;;4987356;28;20215;-89
2021/03/22 02:58:28;;;;;;;14.47;4.30;;;6.30;99.90;;;;;;4987964;28;20227;-83
2021/03/22 03:01:01;;;;;;;17.80;3.40;;;6.20;99.90;;;;;;4987162;28;20204;-93
2021/03/22 03:03:29;;;;;;;21.90;5.47;;;6.20;99.90;;;;;;4985622;28;20192;-91
2021/03/22 03:05:57;;;;;;;17.97;4.30;;;6.20;99.90;;;;;;4987507;28;20332;-80
2021/03/22 03:08:25;;;;;;;20.90;4.77;;;6.10;99.90;;;;;;4986663;28;20200;-79
2021/03/22 03:10:52;;;;;;;15.33;3.87;;;6.10;99.90;;;;;;4986964;28;20204;-79
2021/03/22 03:13:18;;;;;;;14.77;3.20;;;6.10;99.90;;;;;;4987270;28;20215;-85
2021/03/22 03:15:44;;;;;;;13.80;3.40;;;6.10;99.90;;;;;;4986819;28;20631;-92
2021/03/22 03:18:11;;;;;;;20.77;4.20;;;6.00;99.90;;;;;;4986509;28;20224;-90
2021/03/22 03:20:37;;;;;;;13.63;3.40;;;6.00;99.90;;;;;;4988150;28;20607;-81
2021/03/22 03:23:05;;;;;;;17.23;3.47;;;6.10;99.90;;;;;;4987428;28;20207;-80
2021/03/22 03:25:31;;;;;;;18.30;3.60;;;6.10;99.90;;;;;;4988878;28;20202;-92
2021/03/22 03:27:58;;;;;;;13.20;3.37;;;6.00;99.90;;;;;;4987987;28;20204;-93
2021/03/22 03:30:27;;;;;;;12.40;2.90;;;6.10;99.90;;;;;;4989579;28;20935;-88
2021/03/22 03:32:53;;;;;;;18.33;4.40;;;6.10;99.90;;;;;;4987427;28;20647;-79
2021/03/22 03:35:28;;;;;;;17.20;4.73;;;6.10;99.90;;;;;;4988477;28;20849;-93
2021/03/22 03:37:55;;;;;;;10.73;3.47;;;6.10;99.90;;;;;;4983596;28;20720;-93
2021/03/22 03:40:29;;;;;;;12.33;2.63;;;6.10;99.90;;;;;;4990461;28;20211;-94
2021/03/22 03:42:55;;;;;;;14.30;3.73;;;6.10;99.90;;;;;;4988542;28;20542;-82
2021/03/22 03:45:23;;;;;;;14.57;3.20;;;6.10;99.90;;;;;;4990009;28;20267;-94
2021/03/22 03:47:49;;;;;;;15.07;2.90;;;6.10;99.90;;;;;;4989202;28;20204;-92
2021/03/22 03:50:18;;;;;;;9.73;2.83;;;6.10;99.90;;;;;;4988540;28;20204;-90
2021/03/22 03:52:45;;;;;;;17.40;3.30;;;6.10;99.90;;;;;;4979641;28;20227;-90
2021/03/22 03:55:13;;;;;;;19.70;3.23;;;6.10;99.90;;;;;;4988689;28;20203;-89
2021/03/22 03:57:40;;;;;;;15.87;3.40;;;6.20;99.90;;;;;;4988173;28;20240;-91
2021/03/22 04:00:10;;;;;;;10.93;2.67;;;6.20;99.90;;;;;;4989603;28;20215;-85
2021/03/22 04:02:36;;;;;;;13.87;2.50;;;6.20;99.90;;;;;;4989772;28;20231;-83
2021/03/22 04:05:05;;;;;;;11.27;2.90;;;6.20;99.90;;;;;;4992470;28;20211;-93
2021/03/22 04:07:31;;;;;;;11.40;2.93;;;6.20;99.90;;;;;;4990348;28;20212;-92
2021/03/22 04:09:57;;;;;;;9.43;2.70;;;6.20;99.90;;;;;;4990995;28;20204;-84
2021/03/22 04:12:24;;;;;;;11.90;3.67;;;6.20;99.90;;;;;;4990992;28;20208;-79
2021/03/22 04:14:51;;;;;;;17.17;2.63;;;6.20;99.90;;;;;;4990626;28;20231;-92
2021/03/22 04:17:17;;;;;;;16.37;2.47;;;6.20;99.90;;;;;;4989740;28;20228;-88
2021/03/22 04:19:44;;;;;;;13.13;3.17;;;6.20;99.90;;;;;;4990987;28;20196;-90
2021/03/22 04:22:10;;;;;;;34.83;4.03;;;6.20;99.90;;;;;;4989962;28;20204;-79
2021/03/22 04:24:37;;;;;;;9.80;2.83;;;6.30;99.90;;;;;;4988695;28;20755;-80
2021/03/22 04:27:04;;;;;;;11.40;2.57;;;6.30;99.90;;;;;;4990477;28;20620;-92
2021/03/22 04:29:30;;;;;;;8.57;2.57;;;6.30;99.90;;;;;;4989980;28;20215;-81
2021/03/22 04:31:58;;;;;;;12.10;2.50;;;6.30;99.90;;;;;;4990338;28;20204;-80
2021/03/22 04:34:24;;;;;;;5.27;2.17;;;6.30;99.90;;;;;;4987481;28;20200;-81
2021/03/22 04:36:50;;;;;;;5.97;2.50;;;6.30;99.90;;;;;;4989165;28;20601;-92
2021/03/22 04:39:16;;;;;;;9.97;2.07;;;6.30;99.90;;;;;;4990508;28;20227;-92
2021/03/22 04:41:42;;;;;;;9.07;2.30;;;6.30;99.90;;;;;;4990188;28;20192;-80
2021/03/22 04:44:10;;;;;;;9.93;2.40;;;6.30;99.90;;;;;;4989209;28;20208;-80
2021/03/22 04:46:37;;;;;;;7.33;2.10;;;6.30;99.90;;;;;;4990285;28;20390;-89
2021/03/22 04:49:04;;;;;;;17.10;3.10;;;6.40;99.90;;;;;;4989254;28;20204;-82
2021/03/22 04:51:31;;;;;;;10.20;2.67;;;6.40;99.90;;;;;;4989184;28;20222;-87
2021/03/22 04:53:57;;;;;;;9.00;2.13;;;6.40;99.90;;;;;;4992135;28;20526;-82
2021/03/22 04:56:24;;;;;;;8.00;1.93;;;6.40;99.90;;;;;;4990493;28;20675;-91
2021/03/22 04:58:50;;;;;;;7.40;1.80;;;6.40;99.90;;;;;;4991093;28;20329;-91
2021/03/22 05:01:17;;;;;;;10.90;2.33;;;6.50;99.90;;;;;;4992291;28;20521;-92
2021/03/22 05:03:43;;;;;;;6.63;1.90;;;6.50;99.90;;;;;;4992439;28;20258;-81
2021/03/22 05:06:11;;;;;;;13.23;2.70;;;6.50;99.90;;;;;;4990218;28;20364;-81
2021/03/22 05:08:37;;;;;;;12.20;2.33;;;6.50;99.90;;;;;;4989761;28;20532;-84
2021/03/22 05:11:04;;;;;;;8.63;2.27;;;6.50;99.90;;;;;;4988212;28;20196;-80
2021/03/22 05:13:30;;;;;;;15.00;2.70;;;6.50;99.90;;;;;;4988250;28;20208;-80
2021/03/22 05:15:57;;;;;;;7.23;2.13;;;6.50;99.90;;;;;;4989162;28;20204;-82
2021/03/22 05:18:26;;;;;;;13.37;2.83;;;6.50;99.90;;;;;;4988128;28;20519;-89
2021/03/22 05:20:56;;;;;;;8.30;2.00;;;6.50;99.90;;;;;;4988910;28;20218;-81
2021/03/22 05:23:26;;;;;;;6.80;1.97;;;6.50;99.90;;;;;;4988710;28;20220;-82
2021/03/22 05:25:53;;;;;;;5.70;1.30;;;6.60;99.90;;;;;;4987985;28;20239;-85
2021/03/22 05:28:21;;;;;;;5.20;1.30;;;6.60;99.90;;;;;;4989322;28;20216;-79
2021/03/22 05:30:47;;;;;;;5.10;1.50;;;6.50;99.90;;;;;;4989208;28;20208;-84
2021/03/22 05:33:15;;;;;;;4.57;1.27;;;6.50;99.90;;;;;;4989687;28;20204;-87
2021/03/22 05:35:44;;;;;;;3.47;1.07;;;6.50;99.90;;;;;;4990644;28;20208;-87
2021/03/22 05:38:11;;;;;;;8.47;1.20;;;6.40;99.90;;;;;;4990102;28;20278;-85
2021/03/22 05:40:43;;;;;;;7.47;1.70;;;6.40;99.90;;;;;;4988397;28;20208;-87
2021/03/22 05:43:21;;;;;;;4.97;1.40;;;6.40;99.90;;;;;;4989153;28;20196;-87
2021/03/22 05:45:57;;;;;;;9.90;1.50;;;6.40;99.90;;;;;;4989583;28;20942;-87
2021/03/22 05:48:45;;;;;;;6.43;1.40;;;6.40;99.90;;;;;;4987867;28;20331;-81
2021/03/22 05:51:30;;;;;;;7.27;1.30;;;6.50;99.90;;;;;;4971971;28;20216;-81
2021/03/22 05:54:05;;;;;;;3.87;1.10;;;6.50;99.90;;;;;;4982045;28;20293;-91
2021/03/22 05:56:39;;;;;;;8.07;1.30;;;6.40;99.90;;;;;;4989869;28;20243;-91
2021/03/22 05:59:19;;;;;;;4.27;1.40;;;6.40;99.90;;;;;;4989476;28;20231;-79
2021/03/22 06:01:47;;;;;;;6.03;1.50;;;6.40;99.90;;;;;;4977655;28;20220;-90
2021/03/22 06:04:22;;;;;;;8.50;1.80;;;6.40;99.90;;;;;;4971295;28;20216;-90
2021/03/22 06:06:49;;;;;;;5.83;1.50;;;6.40;99.90;;;;;;4972869;28;20196;-90
2021/03/22 06:09:26;;;;;;;4.33;1.60;;;6.40;99.90;;;;;;4971710;28;20201;-82
2021/03/22 06:12:02;;;;;;;5.80;2.07;;;6.40;99.90;;;;;;4972043;28;20200;-90
2021/03/22 06:14:37;;;;;;;12.77;2.00;;;6.40;99.90;;;;;;4971193;28;20211;-92
2021/03/22 06:17:11;;;;;;;8.33;2.03;;;6.50;99.90;;;;;;4973240;28;20200;-90
2021/03/22 06:19:42;;;;;;;5.70;1.50;;;6.50;99.90;;;;;;4972642;28;20255;-90
2021/03/22 06:22:10;;;;;;;7.10;2.57;;;6.50;99.90;;;;;;4971754;28;20205;-91
2021/03/22 06:24:38;;;;;;;8.20;1.57;;;6.40;99.90;;;;;;4985167;28;20508;-91
2021/03/22 06:27:09;;;;;;;7.73;1.67;;;6.50;99.90;;;;;;4992020;28;20200;-90
2021/03/22 06:29:39;;;;;;;8.13;1.40;;;6.50;99.90;;;;;;4991563;28;20623;-90
2021/03/22 06:32:08;;;;;;;5.07;1.57;;;6.50;99.90;;;;;;4983340;28;20216;-91
2021/03/22 06:34:40;;;;;;;5.63;1.30;;;6.50;99.90;;;;;;4972360;28;20263;-91
2021/03/22 06:37:09;;;;;;;6.60;1.27;;;6.50;99.90;;;;;;4971581;28;20664;-80
2021/03/22 06:39:35;;;;;;;12.57;1.37;;;6.50;99.90;;;;;;4970577;28;20204;-91
2021/03/22 06:42:18;;;;;;;3.23;1.30;;;6.60;99.90;;;;;;4990465;28;20207;-90
2021/03/22 06:44:44;;;;;;;3.90;1.13;;;6.60;99.90;;;;;;4981350;28;20217;-80
2021/03/22 06:47:27;;;;;;;8.03;1.63;;;6.70;99.90;;;;;;4970071;28;20212;-80
2021/03/22 06:50:11;;;;;;;4.73;0.97;;;6.70;99.90;;;;;;4964894;28;20192;-89
2021/03/22 06:52:39;;;;;;;3.77;1.27;;;6.70;99.90;;;;;;4971893;28;20189;-78
2021/03/22 06:55:25;;;;;;;6.80;1.80;;;6.70;99.90;;;;;;4986718;28;20314;-79
2021/03/22 06:57:52;;;;;;;6.80;1.57;;;6.70;99.90;;;;;;4991507;28;20239;-91
2021/03/22 07:00:20;;;;;;;7.73;1.50;;;6.70;99.90;;;;;;4991290;28;20208;-91
2021/03/22 07:02:49;;;;;;;8.07;1.80;;;6.60;99.90;;;;;;4985279;28;20216;-79
2021/03/22 07:05:32;;;;;;;7.33;1.77;;;6.60;99.90;;;;;;4970044;28;20220;-91
2021/03/22 07:08:00;;;;;;;5.83;2.20;;;6.70;99.90;;;;;;4970422;28;20205;-91
2021/03/22 07:10:30;;;;;;;5.87;1.67;;;6.70;99.90;;;;;;4971997;28;20256;-85
2021/03/22 07:13:19;;;;;;;6.03;1.50;;;6.70;99.90;;;;;;4989428;28;20200;-81
2021/03/22 07:15:47;;;;;;;6.57;1.57;;;6.70;99.90;;;;;;4970239;28;20221;-92
2021/03/22 07:18:21;;;;;;;8.60;2.13;;;6.70;99.90;;;;;;4950322;29;20225;-89
2021/03/22 07:21:03;;;;;;;6.60;2.00;;;6.70;99.90;;;;;;4949075;29;20205;-80
2021/03/22 07:23:48;;;;;;;5.60;1.37;;;6.80;99.90;;;;;;4947787;29;20241;-90
2021/03/22 07:26:22;;;;;;;5.37;1.43;;;6.80;99.90;;;;;;4951260;29;20213;-92
2021/03/22 07:29:00;;;;;;;4.00;0.80;;;6.80;99.90;;;;;;4959498;28;20698;-87
2021/03/22 07:31:36;;;;;;;2.93;0.67;;;6.80;99.90;;;;;;4971448;28;20207;-91
2021/03/22 07:34:20;;;;;;;1.93;0.87;;;6.80;99.90;;;;;;4973722;28;20609;-94
2021/03/22 07:36:55;;;;;;;1.43;0.60;;;6.90;99.90;;;;;;4973370;28;20215;-92
2021/03/22 07:39:34;;;;;;;2.17;0.50;;;7.00;99.90;;;;;;4973684;28;20220;-91
2021/03/22 07:42:38;;;;;;;2.70;0.93;;;7.00;99.90;;;;;;4974384;28;20749;-87
2021/03/22 07:45:24;;;;;;;1.33;0.80;;;7.00;99.90;;;;;;4968328;28;20205;-91
2021/03/22 07:48:20;;;;;;;2.93;0.53;;;7.00;99.90;;;;;;4972790;28;20853;-90
2021/03/22 07:50:52;;;;;;;2.30;0.70;;;7.10;99.90;;;;;;4961898;28;20200;-89
2021/03/22 07:53:29;;;;;;;1.57;0.60;;;7.00;99.90;;;;;;4971069;28;20246;-81
2021/03/22 07:55:56;;;;;;;2.00;0.70;;;7.00;99.90;;;;;;4969342;28;20201;-78
2021/03/22 07:58:48;;;;;;;3.13;0.60;;;7.00;99.90;;;;;;4966483;28;20232;-83
2021/03/22 08:01:21;;;;;;;3.10;0.87;;;7.10;99.90;;;;;;4969314;28;20213;-87
2021/03/22 08:04:18;;;;;;;2.63;0.60;;;7.20;99.90;;;;;;4970441;28;20831;-82
2021/03/22 08:07:05;;;;;;;1.27;0.60;;;7.30;99.90;;;;;;4970199;28;20215;-84
2021/03/22 08:13:12;;;;;;;2.83;0.50;;;7.60;99.90;;;;;;4962386;28;20197;-86
2021/03/22 08:15:49;;;;;;;6.27;0.83;;;7.70;99.90;;;;;;4970404;28;20528;-83
2021/03/22 08:18:27;;;;;;;5.50;0.80;;;7.80;99.90;;;;;;4968990;28;20243;-82
2021/03/22 08:21:04;;;;;;;4.10;1.27;;;7.90;99.90;;;;;;4970622;28;20203;-80
2021/03/22 08:23:37;;;;;;;2.87;0.57;;;7.90;99.90;;;;;;4970709;28;20220;-83
2021/03/22 08:26:09;;;;;;;3.07;0.87;;;7.90;99.90;;;;;;4970905;28;20216;-80
2021/03/22 08:28:40;;;;;;;2.23;0.60;;;8.10;99.90;;;;;;4963483;28;20660;-85
2021/03/22 08:31:12;;;;;;;1.47;0.80;;;8.30;99.90;;;;;;4968904;28;20219;-84
2021/03/22 08:33:44;;;;;;;2.63;1.47;;;8.30;99.90;;;;;;4969661;28;20201;-81
2021/03/22 08:36:33;;;;;;;3.90;0.80;;;8.30;99.90;;;;;;4970356;28;20208;-87
2021/03/22 08:39:08;;;;;;;2.37;0.90;;;8.20;99.90;;;;;;4969001;28;20220;-87
2021/03/22 08:41:37;;;;;;;3.73;0.60;;;8.10;99.90;;;;;;4970822;28;20864;-91
2021/03/22 08:44:14;;;;;;;1.40;0.80;;;8.00;99.90;;;;;;4974577;28;20197;-87
2021/03/22 08:46:48;;;;;;;2.17;1.00;;;7.90;99.90;;;;;;4965020;28;20609;-91
2021/03/22 08:49:23;;;;;;;2.30;0.60;;;7.80;99.90;;;;;;4954186;29;20197;-85
2021/03/22 08:51:52;;;;;;;2.73;0.97;;;7.80;99.90;;;;;;4983792;28;20459;-93
2021/03/22 08:54:28;;;;;;;1.43;0.60;;;7.90;99.90;;;;;;4985994;28;20245;-80
2021/03/22 08:57:04;;;;;;;3.23;0.50;;;7.90;99.90;;;;;;4971739;28;20251;-85
2021/03/22 08:59:31;;;;;;;2.03;0.80;;;7.80;99.90;;;;;;4990074;28;20227;-89
2021/03/22 09:02:18;;;;;;;3.50;0.50;;;7.90;99.90;;;;;;4989804;28;20207;-91
2021/03/22 09:04:45;;;;;;;1.67;1.10;;;8.00;99.90;;;;;;4989791;28;20290;-89
2021/03/22 09:07:32;;;;;;;1.90;0.50;;;8.30;99.90;;;;;;4989592;28;20200;-88
2021/03/22 09:10:30;;;;;;;4.33;0.60;;;8.60;99.90;;;;;;4989196;28;20612;-79
2021/03/22 09:13:25;;;;;;;4.47;1.90;;;8.70;99.90;;;;;;4976067;28;20208;-89
2021/03/22 09:16:39;;;;;;;2.03;0.97;;;8.60;99.90;;;;;;4968176;28;20214;-78
2021/03/22 09:19:36;;;;;;;2.60;0.80;;;8.50;99.90;;;;;;4983829;28;20282;-80
2021/03/22 09:22:46;;;;;;;2.03;0.90;;;8.40;99.90;;;;;;4974559;28;20323;-84
2021/03/22 09:25:30;;;;;;;5.33;0.70;;;8.40;99.90;;;;;;4989751;28;20580;-88
2021/03/22 09:28:30;;;;;;;3.90;0.60;;;8.30;99.90;;;;;;4988585;28;20200;-93
2021/03/22 09:30:57;;;;;;;4.17;0.90;;;8.30;99.90;;;;;;4971095;28;20204;-91
2021/03/22 09:33:51;;;;;;;2.30;0.60;;;8.00;99.90;;;;;;4969680;28;20196;-83
2021/03/22 09:36:37;;;;;;;1.73;0.80;;;8.00;99.90;;;;;;4969131;28;20212;-91
2021/03/22 09:39:07;;;;;;;3.17;1.00;;;7.90;99.90;;;;;;4979571;28;20227;-79
2021/03/22 09:42:14;;;;;;;4.63;1.67;;;7.90;99.90;;;;;;4987755;28;20200;-82
2021/03/22 09:45:16;;;;;;;4.47;0.90;;;7.90;99.90;;;;;;4984833;28;20298;-81
2021/03/22 09:47:42;;;;;;;2.10;0.50;;;7.90;99.90;;;;;;4988719;28;20222;-78
2021/03/22 09:50:22;;;;;;;6.40;0.70;;;8.00;99.90;;;;;;4988097;28;20207;-83
2021/03/22 09:53:28;;;;;;;1.83;0.40;;;8.20;99.90;;;;;;4986206;28;20327;-83
2021/03/22 09:56:05;;;;;;;2.20;0.60;;;8.40;99.90;;;;;;4976956;28;20203;-93
2021/03/22 09:58:37;;;;;;;1.43;0.57;;;8.60;99.90;;;;;;4973728;28;20475;-89
2021/03/22 10:01:06;;;;;;;1.40;0.60;;;8.80;99.90;;;;;;4972390;28;20196;-90
2021/03/22 10:04:05;;;;;;;4.00;0.77;;;9.00;99.90;;;;;;4980516;28;20189;-92
2021/03/22 10:06:50;;;;;;;1.60;0.47;;;9.20;99.90;;;;;;4988787;28;20208;-93
2021/03/22 10:09:20;;;;;;;2.23;0.63;;;9.30;99.90;;;;;;4995812;28;20200;-92
2021/03/22 10:11:49;;;;;;;1.80;0.40;;;9.60;99.90;;;;;;4965710;28;20196;-78
2021/03/22 10:14:27;;;;;;;1.40;0.50;;;9.70;99.90;;;;;;4990607;28;20204;-82
2021/03/22 10:16:54;;;;;;;1.93;0.53;;;10.00;99.90;;;;;;4985618;28;20242;-78
2021/03/22 10:19:22;;;;;;;2.93;0.70;;;10.20;99.90;;;;;;4987601;28;20239;-93
2021/03/22 10:21:52;;;;;;;2.73;0.63;;;10.20;99.90;;;;;;4990520;28;20207;-81
2021/03/22 10:24:32;;;;;;;4.80;0.87;;;10.10;99.90;;;;;;4986973;28;20212;-85
2021/03/22 10:27:00;;;;;;;2.13;0.50;;;10.10;99.90;;;;;;4980527;28;20704;-86
2021/03/22 10:29:31;;;;;;;0.97;0.60;;;10.20;99.90;;;;;;4986427;28;20460;-91
2021/03/22 10:32:02;;;;;;;3.50;0.70;;;10.30;99.90;;;;;;4976070;28;20204;-89
2021/03/22 10:34:34;;;;;;;3.10;0.97;;;10.30;99.90;;;;;;5007154;22;20625;-80
2021/03/22 10:37:09;;;;;;;1.63;0.50;;;10.40;99.90;;;;;;5046620;28;20206;-79
2021/03/22 10:39:37;;;;;;;6.53;0.70;;;10.40;99.90;;;;;;5031657;28;20276;-88
2021/03/22 10:42:22;;;;;;;2.80;0.50;;;10.60;99.90;;;;;;5041366;28;20209;-80
2021/03/22 10:44:49;;;;;;;1.10;0.50;;;10.80;99.90;;;;;;5045131;28;20346;-78
2021/03/22 10:47:19;;;;;;;1.77;0.50;;;10.90;99.90;;;;;;5047977;28;20208;-84
2021/03/22 10:49:46;;;;;;;1.73;0.60;;;11.00;99.90;;;;;;5049485;28;20198;-92
2021/03/22 10:52:24;;;;;;;5.53;0.80;;;10.90;99.90;;;;;;5049781;28;20267;-91
2021/03/22 10:54:51;;;;;;;2.77;0.60;;;11.00;99.90;;;;;;5028873;28;20610;-80
2021/03/22 10:57:22;;;;;;;3.43;0.60;;;10.90;99.90;;;;;;5028091;28;20218;-89
2021/03/22 10:59:52;;;;;;;5.10;0.73;;;10.90;99.90;;;;;;5029221;28;20211;-94
2021/03/22 11:02:25;;;;;;;2.07;0.70;;;11.00;99.90;;;;;;5026429;28;20321;-87
2021/03/22 11:04:53;;;;;;;1.53;0.50;;;11.10;99.90;;;;;;5015924;28;20239;-77
2021/03/22 11:07:21;;;;;;;3.27;0.80;;;11.30;99.90;;;;;;5024019;28;20278;-82
2021/03/22 11:09:59;;;;;;;3.70;0.90;;;11.40;99.90;;;;;;5036401;28;20260;-79
2021/03/22 11:12:27;;;;;;;2.50;1.10;;;11.40;99.90;;;;;;5024000;28;20306;-84
2021/03/22 11:15:00;;;;;;;2.37;0.80;;;11.40;99.90;;;;;;5024577;28;20206;-81
2021/03/22 11:17:29;;;;;;;1.13;0.70;;;11.40;99.90;;;;;;5040732;28;20206;-84
2021/03/22 11:19:56;;;;;;;4.03;0.80;;;11.40;99.90;;;;;;5048284;28;20226;-85
2021/03/22 11:22:33;;;;;;;1.50;0.50;;;11.30;99.90;;;;;;5044296;28;20510;-78
2021/03/22 11:25:00;;;;;;;2.43;0.60;;;11.30;99.90;;;;;;5049364;28;20800;-82
2021/03/22 11:27:54;;;;;;;1.97;0.50;;;11.50;99.90;;;;;;5024818;28;20349;-77
2021/03/22 11:30:32;;;;;;;2.30;1.00;;;11.60;99.90;;;;;;5023704;28;20207;-81
2021/03/22 11:32:59;;;;;;;1.80;0.50;;;11.60;99.90;;;;;;5025700;28;20194;-84
2021/03/22 11:35:29;;;;;;;1.30;0.40;;;11.70;99.90;;;;;;5024296;28;20288;-80
2021/03/22 11:38:00;;;;;;;0.97;0.40;;;11.80;99.90;;;;;;5022838;28;20198;-79
2021/03/22 11:40:29;;;;;;;2.50;0.50;;;11.70;99.90;;;;;;5023389;28;20198;-78
2021/03/22 11:42:59;;;;;;;1.27;0.50;;;11.80;99.90;;;;;;5022252;28;20225;-78
2021/03/22 11:45:34;;;;;;;1.20;0.50;;;11.60;99.90;;;;;;5021759;28;20491;-80
2021/03/22 11:48:01;;;;;;;3.30;0.83;;;11.60;99.90;;;;;;5031957;28;20209;-82
2021/03/22 11:50:44;;;;;;;0.57;0.30;;;11.80;99.90;;;;;;5042052;28;20206;-77
2021/03/22 11:53:14;;;;;;;1.07;0.40;;;12.00;99.90;;;;;;5042269;28;20206;-82
2021/03/22 11:55:43;;;;;;;1.60;0.40;;;12.30;99.90;;;;;;5043261;28;20202;-80
2021/03/22 11:58:28;;;;;;;0.30;0.30;;;12.30;99.90;;;;;;5024151;28;20292;-79
2021/03/22 12:00:56;;;;;;;1.60;0.43;;;12.40;99.90;;;;;;5026118;28;20205;-85
2021/03/22 12:03:28;;;;;;;0.73;0.40;;;12.40;99.90;;;;;;5039046;28;20213;-85
2021/03/22 12:06:06;;;;;;;0.87;0.50;;;12.60;99.90;;;;;;5044161;28;20245;-79
2021/03/22 12:08:35;;;;;;;1.63;0.40;;;12.60;99.90;;;;;;5039140;28;20525;-82
2021/03/22 12:11:06;;;;;;;3.27;1.10;;;12.80;99.90;;;;;;5026268;28;20203;-86
2021/03/22 12:13:32;;;;;;;1.77;0.60;;;12.50;99.90;;;;;;5025338;28;20937;-81
2021/03/22 12:16:01;;;;;;;1.17;0.30;;;12.20;99.90;;;;;;5026137;28;20214;-81
2021/03/22 12:18:29;;;;;;;3.97;0.57;;;12.10;99.90;;;;;;5025644;28;20227;-84
2021/03/22 12:20:57;;;;;;;4.47;1.30;;;12.10;99.90;;;;;;5029078;28;20211;-83
2021/03/22 12:23:24;;;;;;;2.37;0.57;;;12.20;99.90;;;;;;5043416;28;20206;-83
2021/03/22 12:25:50;;;;;;;1.47;0.50;;;12.20;99.90;;;;;;5048707;28;20190;-82
2021/03/22 12:28:17;;;;;;;1.27;0.50;;;12.00;99.90;;;;;;5048697;28;20676;-82
2021/03/22 12:30:43;;;;;;;0.47;0.40;;;11.90;99.90;;;;;;5048639;28;20291;-84
2021/03/22 12:33:19;;;;;;;0.50;0.40;;;11.80;99.90;;;;;;5036537;28;20199;-88
2021/03/22 12:35:45;;;;;;;0.87;0.50;;;11.90;99.90;;;;;;5030562;28;20526;-81
2021/03/22 12:38:12;;;;;;;0.93;0.63;;;12.00;99.90;;;;;;5029302;28;20280;-82
2021/03/22 12:40:38;;;;;;;0.93;0.50;;;11.90;99.90;;;;;;5027894;28;20195;-80
2021/03/22 12:43:05;;;;;;;1.00;0.40;;;11.70;99.90;;;;;;5028292;28;20207;-84
2021/03/22 12:45:37;;;;;;;1.87;0.53;;;11.70;99.90;;;;;;5028135;28;20518;-82
2021/03/22 12:48:04;;;;;;;0.40;0.40;;;11.60;99.90;;;;;;5033726;28;20206;-81
2021/03/22 12:50:34;;;;;;;2.30;0.50;;;11.50;99.90;;;;;;5048459;28;20466;-79
2021/03/22 12:53:01;;;;;;;1.83;0.63;;;11.60;99.90;;;;;;5048223;28;20206;-78
2021/03/22 12:55:30;;;;;;;1.80;0.63;;;11.90;99.90;;;;;;5035052;28;20218;-82
2021/03/22 12:57:58;;;;;;;0.83;0.40;;;12.10;99.90;;;;;;5024876;28;20218;-84
2021/03/22 13:00:27;;;;;;;0.20;0.20;;;12.10;99.90;;;;;;5026802;28;20280;-83
2021/03/22 13:02:54;;;;;;;1.00;0.70;;;12.10;99.90;;;;;;5027886;28;20603;-83
2021/03/22 13:05:23;;;;;;;0.40;0.40;;;12.20;99.90;;;;;;5040539;28;20241;-79
2021/03/22 13:07:50;;;;;;;1.20;0.30;;;12.20;99.90;;;;;;5048110;28;20216;-82
2021/03/22 13:10:18;;;;;;;1.23;0.47;;;12.30;99.90;;;;;;5036085;28;20217;-82
2021/03/22 13:12:44;;;;;;;1.43;0.50;;;12.30;99.90;;;;;;5025526;28;20207;-77
2021/03/22 13:15:24;;;;;;;2.30;0.50;;;12.20;99.90;;;;;;5025393;28;20202;-80
2021/03/22 13:17:51;;;;;;;2.17;1.03;;;12.00;99.90;;;;;;5043853;28;20209;-81
2021/03/22 13:20:18;;;;;;;2.00;0.70;;;11.70;99.90;;;;;;5035164;28;20207;-80
2021/03/22 13:22:45;;;;;;;1.33;0.60;;;11.50;99.90;;;;;;5027977;28;20264;-78